Time;durP1;ratioP1;P1;durP2;ratioP2;P2;SDS_P1;SDS_P2;PMS_P1;PMS_P2;Temp;Humidity;BMP_temperature;BMP_pressure;BME280_temperature;BME280_humidity;BME280_pressure;Samples;Min_cycle;Max_cycle;Signal;HPM_P1;HPM_P2
2024/04/22 00:02:01;;;;;;;0.70;0.30;;;;;;;9.24;100.00;100149.05;105030;1270;65674;-54
2024/04/22 00:04:28;;;;;;;1.00;0.30;;;;;;;9.15;100.00;100152.77;104881;1267;72681;-55
2024/04/22 00:06:56;;;;;;;1.40;0.30;;;;;;;9.06;100.00;100153.92;107743;1264;61710;-54
2024/04/22 00:09:24;;;;;;;1.20;0.40;;;;;;;8.97;100.00;100157.08;105343;1254;60648;-53
2024/04/22 00:11:51;;;;;;;2.20;0.40;;;;;;;8.87;100.00;100154.33;106060;1254;73883;-54
2024/04/22 00:14:20;;;;;;;1.70;0.30;;;;;;;8.80;100.00;100159.38;105473;1254;65686;-54
2024/04/22 00:16:47;;;;;;;1.40;0.40;;;;;;;8.71;100.00;100157.45;105387;1256;73163;-56
2024/04/22 00:19:15;;;;;;;0.40;0.20;;;;;;;8.62;100.00;100165.77;105383;1257;60924;-55
2024/04/22 00:21:43;;;;;;;3.60;0.30;;;;;;;8.60;100.00;100165.42;105422;1256;60371;-54
2024/04/22 00:24:11;;;;;;;0.70;0.20;;;;;;;8.58;100.00;100167.70;105181;1260;74081;-54
2024/04/22 00:26:38;;;;;;;1.30;0.30;;;;;;;8.53;100.00;100170.16;105471;1260;66008;-53
2024/04/22 00:29:06;;;;;;;1.00;0.30;;;;;;;8.45;100.00;100168.81;105537;1255;72708;-53
2024/04/22 00:31:33;;;;;;;1.20;0.40;;;;;;;8.37;100.00;100167.28;105628;1256;60847;-55
2024/04/22 00:34:01;;;;;;;2.20;0.40;;;;;;;8.31;100.00;100169.45;105416;1260;60504;-54
2024/04/22 00:36:29;;;;;;;0.90;0.50;;;;;;;8.24;100.00;100173.05;105359;1260;74217;-53
2024/04/22 00:38:56;;;;;;;1.70;0.40;;;;;;;8.19;100.00;100172.07;105377;1258;65643;-53
2024/04/22 00:41:26;;;;;;;1.20;0.40;;;;;;;8.15;100.00;100175.98;105442;1257;72737;-54
2024/04/22 00:43:53;;;;;;;5.60;0.50;;;;;;;8.10;100.00;100174.06;105116;1260;60444;-53
2024/04/22 00:46:21;;;;;;;1.80;0.40;;;;;;;8.04;100.00;100174.88;105312;1257;60769;-53
2024/04/22 00:48:49;;;;;;;0.70;0.40;;;;;;;7.99;100.00;100177.86;105373;1260;73921;-53
2024/04/22 00:51:16;;;;;;;0.70;0.30;;;;;;;7.96;100.00;100181.46;105303;1257;66986;-53
2024/04/22 00:53:44;;;;;;;1.20;0.40;;;;;;;7.96;100.00;100183.73;105327;1256;71557;-54
2024/04/22 00:56:11;;;;;;;1.80;0.70;;;;;;;7.96;100.00;100182.13;105358;1260;61742;-53
2024/04/22 00:58:39;;;;;;;1.30;0.50;;;;;;;8.00;100.00;100187.91;105221;1255;60630;-53
2024/04/22 01:01:09;;;;;;;2.70;0.70;;;;;;;8.01;100.00;100186.82;105432;1256;72632;-53
2024/04/22 01:03:37;;;;;;;2.10;0.80;;;;;;;7.99;100.00;100189.25;105468;1257;67063;-54
2024/04/22 01:06:05;;;;;;;1.90;0.70;;;;;;;7.97;100.00;100192.08;105307;1257;71741;-54
2024/04/22 01:08:33;;;;;;;1.80;0.60;;;;;;;7.97;100.00;100193.52;105400;1260;60539;-53
2024/04/22 01:11:00;;;;;;;1.70;0.60;;;;;;;7.94;100.00;100197.96;105323;1255;60527;-56
2024/04/22 01:13:28;;;;;;;3.60;0.90;;;;;;;7.91;100.00;100198.73;105576;1260;72940;-53
2024/04/22 01:15:56;;;;;;;1.20;0.40;;;;;;;7.91;100.00;100202.12;105410;1261;65720;-53
2024/04/22 01:18:23;;;;;;;1.50;0.60;;;;;;;7.91;100.00;100202.61;105345;1256;72715;-53
2024/04/22 01:20:51;;;;;;;1.70;0.80;;;;;;;7.90;100.00;100203.11;105424;1257;60779;-53
2024/04/22 01:23:18;;;;;;;2.40;0.80;;;;;;;7.88;100.00;100203.63;105360;1260;61131;-53
2024/04/22 01:25:48;;;;;;;2.50;0.80;;;;;;;7.86;100.00;100204.86;105667;1260;73875;-53
2024/04/22 01:28:16;;;;;;;1.10;0.50;;;;;;;7.87;100.00;100199.95;105264;1257;67062;-53
2024/04/22 01:30:45;;;;;;;5.10;1.00;;;;;;;7.88;100.00;100199.00;105323;1261;71467;-53
2024/04/22 01:33:13;;;;;;;1.90;0.90;;;;;;;7.86;100.00;100197.92;105277;1258;60511;-52
2024/04/22 01:35:41;;;;;;;1.60;0.60;;;;;;;7.87;100.00;100197.73;105576;1260;60424;-54
2024/04/22 01:38:08;;;;;;;2.20;1.10;;;;;;;7.88;100.00;100204.99;105173;1258;74313;-53
2024/04/22 01:40:36;;;;;;;2.70;1.00;;;;;;;7.86;100.00;100204.51;105361;1262;66001;-54
2024/04/22 01:43:03;;;;;;;2.60;0.70;;;;;;;7.84;100.00;100202.87;105271;1258;72716;-53
2024/04/22 01:45:31;;;;;;;1.90;0.90;;;;;;;7.85;100.00;100204.88;105345;1260;61683;-55
2024/04/22 01:47:59;;;;;;;1.90;0.90;;;;;;;7.82;100.00;100208.28;105647;1260;60342;-55
2024/04/22 01:50:26;;;;;;;2.60;0.60;;;;;;;7.78;100.00;100211.35;105084;1260;73908;-54
2024/04/22 01:52:54;;;;;;;3.10;0.90;;;;;;;7.72;100.00;100208.42;105222;1262;65547;-55
2024/04/22 01:55:23;;;;;;;1.90;0.90;;;;;;;7.67;100.00;100213.40;105359;1258;72716;-55
2024/04/22 01:57:51;;;;;;;3.60;0.80;;;;;;;7.64;100.00;100218.73;105389;1263;60490;-55
2024/04/22 02:00:19;;;;;;;2.30;0.90;;;;;;;7.62;100.00;100218.96;105419;1257;60533;-56
2024/04/22 02:02:47;;;;;;;2.30;1.00;;;;;;;7.60;100.00;100217.80;105092;1262;72828;-55
2024/04/22 02:05:15;;;;;;;1.90;0.80;;;;;;;7.56;100.00;100219.64;104914;1261;66799;-55
2024/04/22 02:07:42;;;;;;;3.20;1.10;;;;;;;7.55;100.00;100225.20;105257;1260;71455;-55
2024/04/22 02:10:11;;;;;;;2.30;1.10;;;;;;;7.52;100.00;100225.29;105306;1260;61686;-54
2024/04/22 02:12:51;;;;;;;2.80;1.30;;;;;;;7.50;100.00;100229.80;105501;1256;60328;-52
2024/04/22 02:15:18;;;;;;;2.80;1.20;;;;;;;7.47;100.00;100230.69;105481;1256;72640;-52
2024/04/22 02:17:46;;;;;;;2.30;1.00;;;;;;;7.44;100.00;100232.80;105184;1256;66555;-55
2024/04/22 02:20:14;;;;;;;2.50;0.90;;;;;;;7.41;100.00;100240.46;105232;1256;72705;-54
2024/04/22 02:22:41;;;;;;;2.60;1.00;;;;;;;7.41;100.00;100240.79;105483;1256;60544;-55
2024/04/22 02:25:09;;;;;;;2.30;1.10;;;;;;;7.42;100.00;100241.63;105253;1258;60225;-53
2024/04/22 02:27:37;;;;;;;3.90;1.50;;;;;;;7.40;100.00;100243.16;105320;1257;73895;-54
2024/04/22 02:30:05;;;;;;;3.20;1.40;;;;;;;7.41;100.00;100242.28;105266;1260;65846;-54
2024/04/22 02:32:34;;;;;;;5.60;1.10;;;;;;;7.42;100.00;100247.08;105347;1256;73354;-53
2024/04/22 02:35:02;;;;;;;2.70;1.30;;;;;;;7.44;100.00;100245.23;105381;1260;60486;-53
2024/04/22 02:37:29;;;;;;;4.40;2.00;;;;;;;7.45;100.00;100251.50;105367;1256;60519;-54
2024/04/22 02:39:57;;;;;;;2.90;1.60;;;;;;;7.51;100.00;100254.46;105439;1257;74109;-54
2024/04/22 02:42:24;;;;;;;5.80;1.80;;;;;;;7.58;100.00;100260.14;105505;1256;67069;-54
2024/04/22 02:44:52;;;;;;;3.50;1.70;;;;;;;7.62;100.00;100266.30;105067;1260;71454;-56
2024/04/22 02:47:19;;;;;;;4.00;1.90;;;;;;;7.63;100.00;100267.09;105110;1261;60466;-55
2024/04/22 02:49:47;;;;;;;4.80;1.70;;;;;;;7.66;100.00;100268.96;105269;1256;60559;-55
2024/04/22 02:52:14;;;;;;;5.00;1.40;;;;;;;7.70;100.00;100271.61;105352;1256;72639;-56
2024/04/22 02:54:42;;;;;;;2.70;1.20;;;;;;;7.76;100.00;100275.89;105318;1256;67848;-55
2024/04/22 02:57:10;;;;;;;4.30;1.80;;;;;;;7.81;100.00;100277.77;105390;1257;71924;-55
2024/04/22 02:59:37;;;;;;;4.70;1.80;;;;;;;7.89;100.00;100283.48;105479;1256;61726;-55
2024/04/22 03:02:05;;;;;;;4.30;2.00;;;;;;;7.95;100.00;100281.12;105448;1256;60554;-54
2024/04/22 03:04:32;;;;;;;5.50;1.70;;;;;;;8.01;100.00;100284.05;105525;1258;73867;-55
2024/04/22 03:07:01;;;;;;;3.70;1.50;;;;;;;8.06;100.00;100286.27;105069;1256;67121;-54
2024/04/22 03:09:33;;;;;;;4.60;1.90;;;;;;;8.11;100.00;100296.17;105365;1257;71496;-55
2024/04/22 03:12:01;;;;;;;4.20;1.60;;;;;;;8.16;100.00;100297.33;105532;1257;61747;-54
2024/04/22 03:14:29;;;;;;;5.20;2.20;;;;;;;8.25;100.00;100296.33;105517;1260;59327;-55
2024/04/22 03:16:57;;;;;;;4.80;1.90;;;;;;;8.35;100.00;100300.95;105294;1256;72640;-54
2024/04/22 03:19:24;;;;;;;5.10;1.90;;;;;;;8.47;100.00;100300.21;105081;1256;66983;-54
2024/04/22 03:21:52;;;;;;;4.70;1.60;;;;;;;8.63;100.00;100308.01;105413;1256;72713;-54
2024/04/22 03:24:19;;;;;;;4.30;2.00;;;;;;;8.82;100.00;100308.95;105404;1258;60457;-54
2024/04/22 03:26:47;;;;;;;6.70;2.20;;;;;;;9.09;100.00;100310.48;105611;1260;60529;-55
2024/04/22 03:29:16;;;;;;;3.80;1.70;;;;;;;9.70;100.00;100312.20;105320;1260;73882;-55
2024/04/22 03:31:43;;;;;;;4.60;2.00;;;;;;;10.63;100.00;100307.66;105453;1256;66065;-55
2024/04/22 03:34:11;;;;;;;3.50;1.80;;;;;;;11.66;100.00;100299.42;105365;1260;71480;-55
2024/04/22 03:36:38;;;;;;;3.30;1.70;;;;;;;12.68;100.00;100283.80;105184;1260;61349;-56
2024/04/22 03:39:06;;;;;;;3.10;1.60;;;;;;;13.66;100.00;100268.67;105068;1257;61259;-56
2024/04/22 03:41:33;;;;;;;4.40;2.00;;;;;;;14.44;100.00;100250.52;105320;1256;74718;-55
2024/04/22 03:44:01;;;;;;;5.30;1.80;;;;;;;15.12;100.00;100244.35;105748;1257;65633;-55
2024/04/22 03:52:14;;;;;;;4.60;1.40;;;;;;;16.98;100.00;100240.32;105531;1257;61192;-56
2024/04/22 03:54:42;;;;;;;3.60;1.60;;;;;;;17.28;100.00;100242.16;105610;1254;74616;-56
2024/04/22 03:57:10;;;;;;;4.60;1.70;;;;;;;17.73;100.00;100249.65;105537;1253;65968;-56
2024/04/22 03:59:41;;;;;;;5.30;1.70;;;;;;;18.17;99.64;100239.77;105895;1254;71521;-57
2024/04/22 04:02:09;;;;;;;2.80;1.40;;;;;;;18.36;93.59;100243.84;105604;1254;61272;-56
2024/04/22 04:04:37;;;;;;;3.20;1.70;;;;;;;18.53;89.63;100242.80;105689;1257;61134;-56
2024/04/22 04:07:04;;;;;;;3.30;1.60;;;;;;;18.81;80.25;100229.02;105605;1253;74572;-55
2024/04/22 04:09:32;;;;;;;4.50;1.80;;;;;;;18.86;73.85;100237.98;105650;1252;66880;-56
2024/04/22 04:12:00;;;;;;;3.80;2.30;;;;;;;18.84;73.43;100241.76;105532;1257;72008;-56
2024/04/22 04:14:27;;;;;;;3.80;1.50;;;;;;;19.05;72.20;100241.63;105716;1254;61291;-56
2024/04/22 04:16:55;;;;;;;3.10;1.60;;;;;;;19.36;63.15;100245.29;105584;1254;61333;-56
2024/04/22 04:19:25;;;;;;;3.90;1.60;;;;;;;19.37;57.57;100243.82;105757;1255;74613;-56
2024/04/22 04:21:54;;;;;;;3.60;1.30;;;;;;;19.14;55.35;100239.29;105643;1253;67524;-56
2024/04/22 04:24:22;;;;;;;3.20;1.30;;;;;;;18.96;55.63;100246.01;105633;1254;72756;-56
2024/04/22 04:26:49;;;;;;;2.20;1.20;;;;;;;18.97;56.79;100251.58;105708;1254;61310;-55
2024/04/22 04:29:17;;;;;;;5.00;1.40;;;;;;;19.14;55.05;100245.73;105680;1252;61314;-55
2024/04/22 04:31:44;;;;;;;3.90;1.60;;;;;;;19.07;53.83;100254.13;105783;1256;74951;-56
2024/04/22 04:34:14;;;;;;;2.50;1.20;;;;;;;19.00;55.13;100262.83;105673;1254;67025;-55
2024/04/22 04:36:41;;;;;;;3.10;1.30;;;;;;;19.16;55.39;100260.20;105629;1257;72659;-55
2024/04/22 04:39:09;;;;;;;2.60;1.10;;;;;;;19.24;53.00;100263.64;105529;1253;61257;-55
2024/04/22 04:41:38;;;;;;;2.70;1.20;;;;;;;19.30;52.07;100277.27;105696;1254;61423;-56
2024/04/22 04:44:05;;;;;;;3.30;1.50;;;;;;;19.54;51.76;100283.70;105766;1257;75001;-55
2024/04/22 04:46:33;;;;;;;3.80;1.60;;;;;;;19.82;50.25;100286.88;106155;1257;65636;-54
2024/04/22 04:49:01;;;;;;;2.60;1.60;;;;;;;20.06;49.26;100289.70;105797;1253;72705;-57
2024/04/22 04:51:29;;;;;;;2.90;1.70;;;;;;;20.32;48.77;100291.45;105674;1257;61343;-55
2024/04/22 04:53:56;;;;;;;2.90;1.50;;;;;;;20.65;47.93;100295.98;105745;1253;60188;-54
2024/04/22 04:56:24;;;;;;;4.10;1.50;;;;;;;20.96;46.14;100294.88;105536;1254;74743;-55
2024/04/22 04:58:53;;;;;;;2.60;1.30;;;;;;;21.13;44.56;100300.22;105758;1257;67068;-55
2024/04/22 05:01:22;;;;;;;7.20;1.60;;;;;;;21.09;43.09;100306.50;105683;1254;75166;-56
2024/04/22 05:03:50;;;;;;;3.30;1.60;;;;;;;20.73;43.37;100316.73;105817;1254;63266;-56
2024/04/22 05:06:18;;;;;;;2.70;1.60;;;;;;;20.64;44.07;100317.91;105478;1257;62931;-55
2024/04/22 05:08:46;;;;;;;3.50;1.20;;;;;;;20.93;43.34;100314.30;105740;1253;77609;-56
2024/04/22 05:11:14;;;;;;;2.70;1.20;;;;;;;21.14;41.54;100310.95;105446;1252;70077;-56
2024/04/22 05:13:42;;;;;;;3.80;1.40;;;;;;;21.21;41.63;100314.40;105677;1255;74106;-56
2024/04/22 05:16:10;;;;;;;2.60;1.70;;;;;;;21.39;41.35;100308.79;105372;1257;61618;-54
2024/04/22 05:18:37;;;;;;;2.70;1.10;;;;;;;21.49;40.60;100307.13;105655;1253;61251;-55
2024/04/22 05:21:09;;;;;;;2.40;1.20;;;;;;;21.49;39.96;100311.21;105543;1256;74704;-56
2024/04/22 05:23:37;;;;;;;2.50;1.20;;;;;;;21.45;40.14;100315.11;105749;1254;69839;-56
2024/04/22 05:26:04;;;;;;;2.60;1.00;;;;;;;21.58;40.32;100317.64;105796;1254;75664;-56
2024/04/22 05:28:32;;;;;;;2.20;1.00;;;;;;;21.83;40.07;100318.23;105676;1256;62880;-56
2024/04/22 05:31:01;;;;;;;8.00;1.50;;;;;;;22.06;38.80;100323.94;105716;1252;61288;-55
2024/04/22 05:36:14;;;;;;;2.40;1.10;;;;;;;21.81;38.76;100326.45;105425;1257;65677;-55
2024/04/22 05:38:43;;;;;;;3.70;1.20;;;;;;;21.86;38.90;100330.20;105682;1254;72318;-54
2024/04/22 05:41:10;;;;;;;1.80;1.10;;;;;;;22.02;38.67;100329.29;105623;1254;61251;-54
2024/04/22 05:43:38;;;;;;;2.80;1.30;;;;;;;22.21;38.58;100328.94;105822;1252;63009;-55
2024/04/22 05:46:08;;;;;;;4.10;0.80;;;;;;;22.36;38.17;100330.12;105638;1256;77562;-54
2024/04/22 05:48:36;;;;;;;6.80;1.30;;;;;;;22.54;37.84;100337.21;105693;1254;66899;-54
2024/04/22 05:51:04;;;;;;;2.30;1.40;;;;;;;22.70;37.43;100339.59;105528;1255;75063;-54
2024/04/22 05:53:32;;;;;;;7.40;1.90;;;;;;;22.89;37.04;100335.68;106190;1254;63042;-54
2024/04/22 05:55:59;;;;;;;4.00;1.30;;;;;;;22.94;36.41;100346.81;105389;1253;61320;-54
2024/04/22 05:58:27;;;;;;;3.80;1.50;;;;;;;22.79;36.64;100352.31;105752;1256;77099;-55
2024/04/22 06:00:55;;;;;;;2.40;1.50;;;;;;;22.77;37.08;100352.11;107214;1256;69857;-55
2024/04/22 06:03:23;;;;;;;3.00;1.50;;;;;;;22.99;37.23;100353.83;105845;1257;75186;-55
2024/04/22 06:05:51;;;;;;;2.70;1.40;;;;;;;23.11;36.18;100359.61;105792;1254;61772;-55
2024/04/22 06:08:19;;;;;;;2.90;1.00;;;;;;;22.99;35.94;100356.34;105635;1254;62815;-55
2024/04/22 06:10:47;;;;;;;3.20;1.50;;;;;;;22.76;35.14;100359.17;105656;1256;77618;-56
2024/04/22 06:13:15;;;;;;;2.90;1.30;;;;;;;22.39;35.95;100362.21;105672;1254;69888;-55
2024/04/22 06:15:43;;;;;;;3.10;1.50;;;;;;;22.24;36.82;100366.77;105730;1254;75675;-54
2024/04/22 06:18:10;;;;;;;3.70;1.50;;;;;;;22.33;36.71;100370.53;105686;1257;62109;-55
2024/04/22 06:20:38;;;;;;;3.10;1.20;;;;;;;22.47;36.28;100363.05;105723;1257;62265;-56
2024/04/22 06:23:06;;;;;;;2.90;1.50;;;;;;;22.55;36.31;100367.92;105587;1256;77581;-55
2024/04/22 06:25:34;;;;;;;3.40;1.60;;;;;;;22.71;36.05;100365.80;105846;1254;69876;-56
2024/04/22 06:28:02;;;;;;;2.00;1.30;;;;;;;22.77;35.42;100357.43;105644;1257;75093;-56
2024/04/22 06:30:31;;;;;;;2.30;1.20;;;;;;;22.64;35.45;100361.15;105675;1257;62495;-57
2024/04/22 06:32:59;;;;;;;2.30;1.20;;;;;;;22.52;35.43;100357.66;105571;1254;62315;-55
2024/04/22 06:35:27;;;;;;;2.40;1.10;;;;;;;22.53;35.58;100363.18;105672;1254;76526;-55
2024/04/22 06:37:54;;;;;;;2.90;1.60;;;;;;;22.64;35.37;100371.20;105745;1257;69085;-55
2024/04/22 06:40:22;;;;;;;7.40;1.50;;;;;;;22.69;35.29;100375.26;105777;1254;75410;-54
2024/04/22 06:42:50;;;;;;;2.90;1.50;;;;;;;22.78;35.17;100375.72;105630;1257;61516;-55
2024/04/22 06:45:18;;;;;;;5.20;1.40;;;;;;;22.96;34.62;100375.89;105736;1253;61606;-55
2024/04/22 06:47:45;;;;;;;2.90;1.40;;;;;;;23.10;34.43;100382.69;105674;1255;77191;-56
2024/04/22 06:50:13;;;;;;;3.90;1.50;;;;;;;23.18;34.45;100389.24;105452;1254;68917;-56
2024/04/22 06:52:41;;;;;;;5.20;1.50;;;;;;;23.21;33.49;100399.63;105693;1256;75694;-55
2024/04/22 06:55:09;;;;;;;3.30;1.30;;;;;;;23.11;33.41;100402.58;105765;1254;61935;-56
2024/04/22 06:57:37;;;;;;;3.70;1.40;;;;;;;23.11;33.78;100404.00;105725;1258;62950;-55
2024/04/22 07:00:06;;;;;;;3.20;1.50;;;;;;;23.30;33.86;100401.92;105862;1257;77557;-56
2024/04/22 07:02:34;;;;;;;1.90;1.00;;;;;;;23.50;33.34;100397.00;105832;1254;70357;-54
2024/04/22 07:05:02;;;;;;;4.30;1.20;;;;;;;23.48;32.93;100414.44;105654;1254;75079;-54
2024/04/22 07:07:31;;;;;;;3.20;1.40;;;;;;;23.50;32.28;100421.59;105744;1254;61941;-55
2024/04/22 07:09:59;;;;;;;2.50;1.10;;;;;;;23.41;32.54;100430.93;105974;1252;62736;-55
2024/04/22 07:12:27;;;;;;;1.70;1.00;;;;;;;23.34;32.44;100436.88;105369;1257;77924;-55
2024/04/22 07:14:54;;;;;;;2.40;1.30;;;;;;;23.37;32.42;100437.95;105696;1254;70219;-54
2024/04/22 07:17:22;;;;;;;2.70;1.10;;;;;;;23.48;32.58;100437.05;105567;1254;75554;-54
2024/04/22 07:19:50;;;;;;;2.20;1.30;;;;;;;23.62;32.06;100434.41;105732;1257;61921;-54
2024/04/22 07:22:18;;;;;;;2.80;1.20;;;;;;;23.65;31.88;100439.42;105787;1256;61474;-55
2024/04/22 07:24:46;;;;;;;2.80;1.40;;;;;;;23.55;31.34;100441.91;105524;1254;77226;-54
2024/04/22 07:27:28;;;;;;;4.40;1.20;;;;;;;23.42;32.11;100448.71;105625;1257;68310;-54
2024/04/22 07:29:58;;;;;;;3.10;1.30;;;;;;;23.37;31.97;100444.33;105716;1254;75684;-54
2024/04/22 07:32:26;;;;;;;2.60;1.40;;;;;;;23.37;32.07;100446.03;105769;1257;61796;-55
2024/04/22 07:34:54;;;;;;;4.10;1.30;;;;;;;23.39;31.39;100450.45;105704;1257;61840;-54
2024/04/22 07:37:36;;;;;;;1.50;1.00;;;;;;;23.22;31.40;100451.16;106817;1254;76377;-54
2024/04/22 07:40:07;;;;;;;6.10;1.40;;;;;;;23.09;32.06;100457.83;105412;1254;69611;-55
